LTBS

Details ICAO LTBS (DLM)
Name DALAMAN
Region Turkey
Timezone Europe/Istanbul (UTC+3.0)
Plans Departing 290
Arriving 412
Stats Elevation 20 ft / 6 m (AMSL)
Location 36.713200° 28.792500°
Runways 1
Magnetic Variation 4.959° E
Sunrise 2018-10-16 04:13:56 UTC / 2018-10-16 07:13:56 Local
Sunset 2018-10-16 15:29:13 UTC / 2018-10-16 18:29:13 Local
Advertisement - Login to hide

Runways

ID Width Length Bearing (true/mag) Surface Threshold Overrun Markings Lighting
01 148 ft / 45 m 9,851 ft / 3,003 m 15.24° / 10.28° CONCRETE 0 ft / 0 m 197 ft / 60 m APP EDGE THRESHOLD ALSF-I
19 148 ft / 45 m 9,851 ft / 3,003 m 195.25° / 190.29° CONCRETE 0 ft / 0 m 197 ft / 60 m APP EDGE THRESHOLD ALSF-I

Map

Weather


0- 5 10 15 20 25 30 35+ Temperature / °C

Clouds and Precipitation
Forecast for 2018-10-16 18:00 UTC. Updated 5 hours ago

Ground ~20,000 ft ~40,000 ft Winds

METAR

LTBS 162020Z 06003KT CAVOK 19/16 Q1015 NOSIG RMK RWY19 32002KT

TAF

Not found

Frequencies

Recorded 127.35 MHz ATIS
Ground 121.90 MHz
Tower 118.50 MHz
Approach 119.22 MHz
Approach 129.50 MHz
Tower 128.90 MHz
Warning: Do not use this data for real-world aviation or navigation. No guarantee of current accuracy is given.